Time;durP1;ratioP1;P1;durP2;ratioP2;P2;SDS_P1;SDS_P2;PMS_P1;PMS_P2;Temp;Humidity;BMP_temperature;BMP_pressure;BME280_temperature;BME280_humidity;BME280_pressure;Samples;Min_cycle;Max_cycle;Signal;HPM_P1;HPM_P2
2021/06/05 00:02:06;;;;;;;5.73;2.50;;;17.80;1.00;;;;;;5044819;28;20409;-72
2021/06/05 00:04:38;;;;;;;6.00;2.47;;;17.80;1.00;;;;;;5054725;28;20169;-72
2021/06/05 00:07:09;;;;;;;9.60;2.70;;;17.70;1.00;;;;;;5035861;28;20327;-72
2021/06/05 00:09:35;;;;;;;2.23;2.03;;;;;;;;;;5036101;28;20469;-72
2021/06/05 00:12:01;;;;;;;5.00;3.00;;;17.70;1.00;;;;;;5039895;28;20785;-72
2021/06/05 00:14:26;;;;;;;8.63;2.30;;;17.70;1.00;;;;;;5039881;28;20454;-72
2021/06/05 00:17:03;;;;;;;5.80;2.80;;;17.60;1.00;;;;;;5053300;28;20669;-72
2021/06/05 00:19:29;;;;;;;7.80;2.67;;;17.60;1.00;;;;;;5034965;28;20194;-72
2021/06/05 00:21:55;;;;;;;8.17;2.50;;;;;;;;;;5035562;28;20420;-72
2021/06/05 00:24:21;;;;;;;3.60;2.80;;;;;;;;;;5035294;28;20173;-72
2021/06/05 00:26:47;;;;;;;4.73;1.83;;;17.40;1.00;;;;;;5035907;28;21184;-74
2021/06/05 00:29:15;;;;;;;4.30;2.40;;;17.40;1.00;;;;;;5036734;28;20402;-74
2021/06/05 00:31:41;;;;;;;2.53;2.30;;;17.30;1.00;;;;;;5055613;28;20370;-74
2021/06/05 00:34:38;;;;;;;3.77;2.20;;;17.30;1.00;;;;;;5055570;28;20428;-74
2021/06/05 00:37:04;;;;;;;2.77;2.30;;;17.30;1.00;;;;;;5053310;28;20505;-74
2021/06/05 00:39:44;;;;;;;2.30;1.90;;;17.20;1.00;;;;;;5054895;28;20615;-74
2021/06/05 00:42:10;;;;;;;5.13;2.77;;;17.10;1.00;;;;;;5037770;28;20672;-72
2021/06/05 00:44:36;;;;;;;12.57;2.53;;;17.10;1.00;;;;;;5035256;28;20409;-72
2021/06/05 00:47:02;;;;;;;3.63;2.30;;;17.00;1.00;;;;;;5035268;28;20291;-72
2021/06/05 00:49:28;;;;;;;9.60;2.70;;;;;;;;;;5046852;28;20374;-72
2021/06/05 00:51:56;;;;;;;7.03;2.70;;;17.00;1.00;;;;;;5048786;28;20978;-72
2021/06/05 00:54:22;;;;;;;2.93;2.50;;;;;;;;;;5035572;28;20751;-72
2021/06/05 00:56:54;;;;;;;4.30;2.17;;;16.90;1.00;;;;;;5035373;28;20409;-72
2021/06/05 00:59:22;;;;;;;2.40;2.10;;;16.90;1.00;;;;;;5034722;28;20483;-73
2021/06/05 01:01:48;;;;;;;3.23;2.60;;;16.90;1.00;;;;;;5034938;28;20438;-73
2021/06/05 01:04:14;;;;;;;7.60;2.67;;;16.80;1.00;;;;;;5034974;28;20414;-72
2021/06/05 01:06:58;;;;;;;17.27;2.57;;;16.80;1.00;;;;;;5035047;28;20426;-72
2021/06/05 01:09:29;;;;;;;5.40;2.40;;;16.70;1.00;;;;;;5034942;28;20444;-72
2021/06/05 01:12:03;;;;;;;5.17;2.43;;;16.70;1.00;;;;;;5035322;28;20455;-72
2021/06/05 01:14:55;;;;;;;4.27;2.93;;;16.70;1.00;;;;;;5035595;28;20433;-72
2021/06/05 01:17:37;;;;;;;4.60;3.00;;;16.60;1.00;;;;;;5050284;28;20424;-72
2021/06/05 01:20:15;;;;;;;3.63;2.40;;;16.70;1.00;;;;;;5054491;28;20840;-72
2021/06/05 01:23:11;;;;;;;3.43;2.90;;;16.60;1.00;;;;;;5045637;28;20432;-72
2021/06/05 01:29:25;;;;;;;4.50;2.80;;;16.60;1.00;;;;;;5034068;28;20422;-74
2021/06/05 01:32:13;;;;;;;4.40;2.33;;;16.50;1.00;;;;;;5037677;28;20941;-74
2021/06/05 01:34:45;;;;;;;3.83;2.60;;;16.50;1.00;;;;;;5054493;28;21007;-74
2021/06/05 01:37:16;;;;;;;6.20;3.00;;;16.40;1.00;;;;;;5048311;28;20893;-74
2021/06/05 01:39:52;;;;;;;6.37;2.80;;;16.40;1.00;;;;;;5034579;28;20362;-74
2021/06/05 01:42:27;;;;;;;4.00;2.80;;;16.40;1.00;;;;;;5034693;28;20392;-72
2021/06/05 01:44:56;;;;;;;3.13;2.37;;;16.40;1.00;;;;;;5052980;28;20396;-72
2021/06/05 01:47:22;;;;;;;3.33;2.60;;;16.40;1.00;;;;;;5046343;28;21008;-72
2021/06/05 01:49:49;;;;;;;8.43;2.77;;;16.30;1.00;;;;;;5054019;28;20898;-72
2021/06/05 01:52:23;;;;;;;3.37;2.50;;;16.30;1.00;;;;;;5055198;28;20730;-72
2021/06/05 01:55:16;;;;;;;3.63;2.80;;;16.20;1.00;;;;;;5034010;28;20426;-72
2021/06/05 01:57:55;;;;;;;4.87;2.80;;;16.20;1.00;;;;;;5044188;28;20418;-74
2021/06/05 02:00:34;;;;;;;3.00;2.57;;;16.20;1.00;;;;;;5054058;28;20403;-74
2021/06/05 02:03:21;;;;;;;5.13;2.80;;;16.20;1.00;;;;;;5054021;28;20844;-74
2021/06/05 02:05:56;;;;;;;10.43;3.30;;;16.20;1.00;;;;;;5038154;28;20418;-74
2021/06/05 02:08:50;;;;;;;5.67;3.37;;;16.10;1.00;;;;;;5034139;28;20478;-74
2021/06/05 02:11:27;;;;;;;4.90;3.70;;;16.10;1.00;;;;;;5038877;28;20444;-72
2021/06/05 02:14:07;;;;;;;6.20;3.13;;;16.00;1.00;;;;;;5040079;28;20385;-72
2021/06/05 02:16:37;;;;;;;4.53;2.93;;;16.00;1.00;;;;;;5036279;28;20895;-72
2021/06/05 02:19:17;;;;;;;5.23;2.70;;;16.00;1.00;;;;;;5032297;28;20418;-72
2021/06/05 02:21:44;;;;;;;12.23;3.27;;;15.90;1.00;;;;;;5033952;28;20389;-72
2021/06/05 02:24:24;;;;;;;11.93;3.30;;;15.90;1.00;;;;;;5033430;28;20559;-72
2021/06/05 02:26:50;;;;;;;9.10;3.50;;;15.90;1.00;;;;;;5033958;28;20497;-72
2021/06/05 02:29:20;;;;;;;10.60;3.10;;;15.90;1.00;;;;;;5033538;28;20484;-72
2021/06/05 02:31:51;;;;;;;8.20;3.30;;;15.80;1.00;;;;;;5045970;28;20889;-72
2021/06/05 02:34:20;;;;;;;4.80;2.70;;;15.80;1.00;;;;;;5033516;28;20400;-72
2021/06/05 02:36:51;;;;;;;4.60;3.50;;;15.80;1.00;;;;;;5033926;28;20476;-72
2021/06/05 02:39:20;;;;;;;4.40;3.10;;;15.70;1.00;;;;;;5033563;28;20387;-73
2021/06/05 02:41:58;;;;;;;9.03;2.90;;;15.80;1.00;;;;;;5039524;28;20391;-72
2021/06/05 02:44:30;;;;;;;12.50;3.17;;;15.70;1.00;;;;;;5046072;28;20396;-72
2021/06/05 02:47:00;;;;;;;5.63;3.10;;;;;;;;;;5056332;28;20454;-72
2021/06/05 02:49:36;;;;;;;5.07;3.10;;;15.70;1.00;;;;;;5037466;28;20370;-72
2021/06/05 02:52:28;;;;;;;3.63;3.33;;;15.60;1.00;;;;;;5037309;28;20481;-72
2021/06/05 02:55:06;;;;;;;5.73;3.30;;;15.60;1.00;;;;;;5037436;28;20453;-73
2021/06/05 02:57:51;;;;;;;7.30;3.60;;;15.60;1.00;;;;;;5037681;28;20414;-74
2021/06/05 03:00:22;;;;;;;3.60;2.83;;;15.60;1.00;;;;;;5037421;28;20407;-74
2021/06/05 03:02:51;;;;;;;5.17;3.80;;;15.50;1.00;;;;;;5037491;28;20393;-74
2021/06/05 03:06:08;;;;;;;6.80;3.20;;;15.50;1.00;;;;;;5036986;28;20468;-74
2021/06/05 03:08:37;;;;;;;12.93;3.30;;;15.50;1.00;;;;;;5037140;28;20426;-74
2021/06/05 03:11:18;;;;;;;13.60;3.60;;;15.40;1.00;;;;;;5045721;28;20443;-74
2021/06/05 03:13:45;;;;;;;8.90;3.83;;;15.40;1.00;;;;;;5037650;28;20491;-74
2021/06/05 03:16:12;;;;;;;6.77;3.73;;;15.40;1.00;;;;;;5036990;28;20853;-74
2021/06/05 03:18:39;;;;;;;6.80;3.70;;;15.40;1.00;;;;;;5053517;28;20388;-74
2021/06/05 03:21:12;;;;;;;4.97;3.20;;;15.40;1.00;;;;;;5057203;28;20390;-74
2021/06/05 03:23:47;;;;;;;8.33;3.43;;;15.40;1.00;;;;;;5056836;28;20391;-74
2021/06/05 03:26:15;;;;;;;6.10;3.30;;;15.40;1.00;;;;;;5054566;28;20456;-74
2021/06/05 03:28:41;;;;;;;5.10;3.70;;;15.40;1.00;;;;;;5056847;28;20507;-72
2021/06/05 03:31:08;;;;;;;5.03;3.30;;;15.30;1.00;;;;;;5056649;28;20469;-72
2021/06/05 03:33:34;;;;;;;7.67;4.40;;;15.40;1.00;;;;;;5056479;28;20398;-72
2021/06/05 03:36:00;;;;;;;8.70;4.27;;;;;;;;;;5042406;28;20393;-72
2021/06/05 03:38:27;;;;;;;7.00;3.80;;;15.40;1.00;;;;;;5036216;28;20373;-73
2021/06/05 03:40:54;;;;;;;4.60;3.37;;;15.40;1.00;;;;;;5036495;28;20411;-72
2021/06/05 03:43:21;;;;;;;6.07;3.80;;;15.50;1.00;;;;;;5036739;28;20382;-73
2021/06/05 03:46:09;;;;;;;7.53;4.67;;;15.50;1.00;;;;;;5043263;28;20389;-74
2021/06/05 03:48:36;;;;;;;8.80;4.30;;;15.50;1.00;;;;;;5056477;28;20406;-74
2021/06/05 03:51:03;;;;;;;9.10;3.83;;;;;;;;;;5056441;28;20414;-74
2021/06/05 03:53:34;;;;;;;16.00;4.07;;;15.60;1.00;;;;;;5056139;28;20466;-74
2021/06/05 03:56:00;;;;;;;7.27;3.87;;;15.60;1.00;;;;;;5048218;28;20414;-74
2021/06/05 03:58:42;;;;;;;12.20;5.03;;;15.70;1.00;;;;;;5049879;28;20471;-73
2021/06/05 04:01:13;;;;;;;12.63;4.00;;;15.70;1.00;;;;;;5036584;28;20446;-74
2021/06/05 04:03:39;;;;;;;7.87;4.20;;;;;;;;;;5036340;28;20362;-74
2021/06/05 04:06:18;;;;;;;10.57;4.30;;;15.80;1.00;;;;;;5042871;28;20422;-74
2021/06/05 04:08:58;;;;;;;10.60;4.03;;;15.80;1.00;;;;;;5045115;28;20455;-74
2021/06/05 04:11:28;;;;;;;8.33;4.60;;;15.90;1.00;;;;;;5055991;28;20396;-74
2021/06/05 04:13:55;;;;;;;8.63;4.93;;;16.00;1.00;;;;;;5056373;28;20358;-73
2021/06/05 04:16:22;;;;;;;14.60;4.93;;;;;;;;;;5056057;28;20380;-73
2021/06/05 04:18:51;;;;;;;11.57;5.57;;;16.10;1.00;;;;;;5042035;28;20447;-74
2021/06/05 04:21:56;;;;;;;8.23;4.70;;;16.30;1.00;;;;;;5042505;28;20391;-74
2021/06/05 04:24:27;;;;;;;17.93;5.13;;;16.40;1.00;;;;;;5055421;28;20418;-74
2021/06/05 04:27:20;;;;;;;15.50;5.53;;;16.40;1.00;;;;;;5055748;28;20427;-74
2021/06/05 04:29:46;;;;;;;11.00;6.10;;;16.60;1.00;;;;;;5053490;28;20381;-73
2021/06/05 04:32:15;;;;;;;10.87;6.37;;;16.70;1.00;;;;;;5053466;28;20388;-72
2021/06/05 04:34:40;;;;;;;14.27;6.07;;;16.80;1.00;;;;;;5055489;28;20217;-72
2021/06/05 04:37:09;;;;;;;10.80;6.00;;;16.90;1.00;;;;;;5055524;28;20399;-72
2021/06/05 04:39:35;;;;;;;13.90;6.50;;;17.10;1.00;;;;;;5036723;28;20185;-72
2021/06/05 04:42:01;;;;;;;24.43;5.60;;;17.20;1.00;;;;;;5035573;28;20404;-72
2021/06/05 04:44:28;;;;;;;13.30;6.80;;;17.40;1.00;;;;;;5035602;28;20534;-72
2021/06/05 04:46:54;;;;;;;15.10;7.27;;;;;;;;;;5036605;28;20454;-72
2021/06/05 04:49:20;;;;;;;13.87;6.90;;;17.70;1.00;;;;;;5048474;28;20466;-72
2021/06/05 04:51:46;;;;;;;11.43;5.83;;;17.90;1.00;;;;;;5035257;28;20368;-72
2021/06/05 04:54:12;;;;;;;12.83;6.00;;;;;;;;;;5042646;28;20186;-72
2021/06/05 04:56:46;;;;;;;12.30;6.37;;;18.20;1.00;;;;;;5053420;28;20404;-72
2021/06/05 04:59:22;;;;;;;19.23;7.80;;;18.30;1.00;;;;;;5055556;28;20404;-74
2021/06/05 05:02:03;;;;;;;15.70;7.60;;;18.50;1.00;;;;;;5055093;28;20452;-75
2021/06/05 05:04:29;;;;;;;22.07;7.20;;;;;;;;;;5046015;28;20429;-75
2021/06/05 05:07:14;;;;;;;12.80;7.87;;;18.90;1.00;;;;;;5034812;28;20909;-75
2021/06/05 05:09:57;;;;;;;14.50;6.53;;;19.00;1.00;;;;;;5035210;28;20486;-75
2021/06/05 05:12:42;;;;;;;14.30;6.27;;;19.20;1.00;;;;;;5034856;28;20373;-75
2021/06/05 05:15:10;;;;;;;14.37;6.43;;;19.30;1.00;;;;;;5035375;28;20499;-75
2021/06/05 05:17:38;;;;;;;11.60;6.23;;;19.50;1.00;;;;;;5034827;28;20535;-75
2021/06/05 05:20:18;;;;;;;13.67;5.33;;;19.70;1.00;;;;;;5044671;28;20391;-75
2021/06/05 05:22:45;;;;;;;10.83;5.60;;;19.80;1.00;;;;;;5054799;28;20392;-75
2021/06/05 05:25:21;;;;;;;15.07;5.20;;;19.90;1.00;;;;;;5035938;28;20460;-75
2021/06/05 05:27:54;;;;;;;14.97;4.70;;;20.10;1.00;;;;;;5034790;28;20461;-75
2021/06/05 05:30:27;;;;;;;11.60;4.73;;;20.20;1.00;;;;;;5044643;28;20908;-75
2021/06/05 05:32:58;;;;;;;10.53;4.77;;;20.30;1.00;;;;;;5054130;28;20751;-75
2021/06/05 05:35:24;;;;;;;4.70;3.40;;;20.40;1.00;;;;;;5038371;28;20465;-74
2021/06/05 05:37:51;;;;;;;4.60;3.27;;;20.50;1.00;;;;;;5034513;28;20490;-74
2021/06/05 05:40:19;;;;;;;8.40;3.50;;;20.60;1.00;;;;;;5033844;28;20414;-74
2021/06/05 05:42:44;;;;;;;5.07;3.43;;;20.70;1.00;;;;;;5049873;28;20432;-74
2021/06/05 05:45:16;;;;;;;5.77;3.47;;;20.80;1.00;;;;;;5054327;28;20398;-73
2021/06/05 05:47:42;;;;;;;3.97;3.30;;;21.00;1.00;;;;;;5033904;28;20270;-72
2021/06/05 05:50:10;;;;;;;9.33;3.50;;;21.10;1.00;;;;;;5034103;28;20826;-71
2021/06/05 05:52:36;;;;;;;4.40;3.17;;;21.20;1.00;;;;;;5045454;28;20435;-72
2021/06/05 05:55:04;;;;;;;7.50;4.30;;;21.30;1.00;;;;;;5040651;28;20427;-72
2021/06/05 05:57:30;;;;;;;5.60;3.80;;;;;;;;;;5033961;28;20494;-72
2021/06/05 05:59:56;;;;;;;6.00;4.00;;;21.30;1.00;;;;;;5034348;28;20898;-74
2021/06/05 06:02:27;;;;;;;8.90;4.70;;;21.30;1.00;;;;;;5034852;28;20934;-74
2021/06/05 06:04:52;;;;;;;10.10;4.63;;;21.30;1.00;;;;;;5034336;28;20453;-74
2021/06/05 06:07:27;;;;;;;9.67;4.47;;;21.30;1.00;;;;;;5034201;28;20816;-74
2021/06/05 06:09:53;;;;;;;22.23;5.70;;;21.40;1.00;;;;;;5033870;28;20619;-74
2021/06/05 06:12:27;;;;;;;8.00;4.97;;;21.60;1.00;;;;;;5034082;28;20426;-74
2021/06/05 06:14:53;;;;;;;7.00;5.37;;;21.60;1.00;;;;;;5034195;28;20447;-71
2021/06/05 06:17:19;;;;;;;8.63;5.20;;;21.80;1.00;;;;;;5033473;28;20424;-71
2021/06/05 06:20:05;;;;;;;6.37;5.07;;;22.00;1.00;;;;;;5033577;28;20166;-74
2021/06/05 06:22:44;;;;;;;11.60;5.13;;;22.20;1.00;;;;;;5033462;28;20428;-74
2021/06/05 06:25:13;;;;;;;8.30;5.17;;;22.40;1.00;;;;;;5033670;28;20429;-72
2021/06/05 06:28:10;;;;;;;9.00;5.10;;;22.40;1.00;;;;;;5050608;28;20489;-78
2021/06/05 06:30:38;;;;;;;8.10;5.73;;;22.60;1.00;;;;;;5054078;28;20399;-78
2021/06/05 06:33:11;;;;;;;9.40;4.50;;;22.60;1.00;;;;;;5054091;28;20397;-78
2021/06/05 06:35:39;;;;;;;10.07;5.50;;;22.60;1.00;;;;;;5053459;28;20936;-78
2021/06/05 06:38:14;;;;;;;8.03;5.70;;;22.50;1.00;;;;;;5051857;28;20417;-78
2021/06/05 06:40:45;;;;;;;7.83;5.87;;;22.40;1.00;;;;;;5053834;28;20805;-78
2021/06/05 06:43:19;;;;;;;8.23;5.70;;;22.30;1.00;;;;;;5037977;28;20934;-78
2021/06/05 06:45:45;;;;;;;7.43;5.13;;;22.30;1.00;;;;;;5034059;28;20425;-79
2021/06/05 06:48:15;;;;;;;11.80;5.97;;;22.30;1.00;;;;;;5033502;28;20464;-79
2021/06/05 06:50:41;;;;;;;14.73;6.40;;;;;;;;;;5032891;28;20417;-79
2021/06/05 06:53:07;;;;;;;7.57;6.00;;;22.10;1.00;;;;;;5033176;28;20422;-79
2021/06/05 06:55:33;;;;;;;6.67;5.10;;;22.10;1.00;;;;;;5033270;28;20958;-79
2021/06/05 06:58:00;;;;;;;8.40;5.80;;;22.10;1.00;;;;;;5033074;28;20171;-79
2021/06/05 07:00:33;;;;;;;9.93;5.70;;;22.10;1.00;;;;;;5033590;28;20217;-80
2021/06/05 07:03:38;;;;;;;8.50;6.17;;;22.20;1.00;;;;;;5043978;28;20426;-79
2021/06/05 07:06:10;;;;;;;7.90;5.90;;;22.10;1.00;;;;;;5036751;28;20443;-80
2021/06/05 07:08:45;;;;;;;13.83;7.60;;;22.10;1.00;;;;;;5033275;28;20497;-81
2021/06/05 07:11:39;;;;;;;10.60;6.13;;;22.00;1.00;;;;;;5033208;28;20859;-80
2021/06/05 07:14:06;;;;;;;12.47;6.03;;;22.00;1.00;;;;;;5038712;28;20415;-77
2021/06/05 07:16:40;;;;;;;8.67;6.67;;;22.10;1.00;;;;;;5052176;28;20405;-80
2021/06/05 07:19:09;;;;;;;12.37;7.30;;;22.10;1.00;;;;;;5031905;28;20463;-79
2021/06/05 07:21:39;;;;;;;9.87;6.97;;;22.10;1.00;;;;;;5044152;28;20431;-80
2021/06/05 07:24:09;;;;;;;10.37;6.97;;;22.10;1.00;;;;;;5052750;28;20414;-80
2021/06/05 07:26:45;;;;;;;8.57;6.37;;;22.10;1.00;;;;;;5051690;28;20513;-80
2021/06/05 07:29:38;;;;;;;12.10;8.17;;;22.30;1.00;;;;;;5054926;28;20392;-80
2021/06/05 07:32:38;;;;;;;13.80;6.50;;;22.40;1.00;;;;;;5056718;28;20392;-80
2021/06/05 07:35:09;;;;;;;13.03;7.13;;;22.50;1.00;;;;;;5053111;28;20422;-80
2021/06/05 07:37:35;;;;;;;16.53;6.67;;;22.60;1.00;;;;;;5037325;28;20422;-80
2021/06/05 07:43:39;;;;;;;11.00;6.57;;;22.70;1.00;;;;;;5036229;28;20410;-80
2021/06/05 07:46:40;;;;;;;7.90;5.93;;;22.70;1.00;;;;;;5056158;28;20501;-81
2021/06/05 07:49:09;;;;;;;12.07;6.97;;;22.90;1.00;;;;;;5056358;28;20389;-80
2021/06/05 07:51:39;;;;;;;28.20;7.30;;;23.00;1.00;;;;;;5056222;28;20395;-81
2021/06/05 07:54:10;;;;;;;9.07;6.10;;;23.20;1.00;;;;;;5052092;28;20466;-80
2021/06/05 07:56:39;;;;;;;16.20;5.33;;;23.20;1.00;;;;;;5036408;28;20628;-80
2021/06/05 07:59:44;;;;;;;11.40;5.83;;;23.40;1.00;;;;;;5036277;28;20755;-81
2021/06/05 08:02:44;;;;;;;14.00;5.50;;;23.50;1.00;;;;;;5036415;28;20370;-80
2021/06/05 08:05:45;;;;;;;7.23;4.90;;;23.70;1.00;;;;;;5048968;28;20410;-80
2021/06/05 08:08:46;;;;;;;5.70;4.03;;;23.60;1.00;;;;;;5056182;28;20451;-79
2021/06/05 08:11:16;;;;;;;7.60;4.93;;;23.50;1.00;;;;;;5055996;28;20425;-80
2021/06/05 08:14:14;;;;;;;6.23;4.67;;;23.50;1.00;;;;;;5053801;28;20441;-80
2021/06/05 08:17:14;;;;;;;5.93;3.90;;;23.50;1.00;;;;;;5056732;28;20404;-81
2021/06/05 08:20:17;;;;;;;5.20;4.10;;;23.40;1.00;;;;;;5043514;28;20408;-81
2021/06/05 08:23:15;;;;;;;8.83;4.33;;;23.80;1.00;;;;;;5034680;28;20422;-80
2021/06/05 08:25:41;;;;;;;5.87;3.90;;;23.80;1.00;;;;;;5034869;28;20451;-79
2021/06/05 08:28:16;;;;;;;5.10;4.20;;;23.70;1.00;;;;;;5040030;28;20444;-79
2021/06/05 08:30:46;;;;;;;5.47;3.83;;;;;;;;;;5041703;28;20411;-83
2021/06/05 08:33:44;;;;;;;5.23;3.80;;;23.50;1.00;;;;;;5035508;28;20475;-83
2021/06/05 08:36:44;;;;;;;6.77;3.63;;;23.50;1.00;;;;;;5041137;28;20412;-83
2021/06/05 08:43:14;;;;;;;5.90;4.20;;;23.10;1.00;;;;;;5054813;28;20455;-82
2021/06/05 08:46:19;;;;;;;6.43;4.40;;;22.90;1.00;;;;;;5055599;28;20402;-82
2021/06/05 08:52:25;;;;;;;4.97;4.07;;;23.20;1.00;;;;;;5046927;28;20451;-83
2021/06/05 08:55:04;;;;;;;4.23;3.47;;;23.40;1.00;;;;;;5044522;28;20419;-82
2021/06/05 08:57:49;;;;;;;4.87;3.93;;;23.60;1.00;;;;;;5054908;28;20391;-83
2021/06/05 09:00:46;;;;;;;5.10;3.20;;;23.90;1.00;;;;;;5054997;28;20898;-83
2021/06/05 09:03:12;;;;;;;4.70;3.00;;;;;;;;;;5054869;28;20399;-83
2021/06/05 09:05:53;;;;;;;5.13;2.87;;;24.20;1.00;;;;;;5046152;28;20435;-83
2021/06/05 09:08:44;;;;;;;7.20;2.97;;;23.90;1.00;;;;;;5035189;28;20437;-83
2021/06/05 09:11:16;;;;;;;5.63;3.80;;;23.80;1.00;;;;;;5033562;28;20415;-84
2021/06/05 09:13:45;;;;;;;6.90;2.97;;;23.80;1.00;;;;;;5035270;28;20418;-87
2021/06/05 09:20:23;;;;;;;2.47;1.93;;;24.40;1.00;;;;;;5049542;28;20773;-86
2021/06/05 09:26:23;;;;;;;3.00;2.77;;;25.10;1.00;;;;;;5011860;28;20421;-86
2021/06/05 09:29:16;;;;;;;2.60;2.37;;;25.20;1.00;;;;;;5011219;28;20514;-85
2021/06/05 09:32:09;;;;;;;3.37;2.40;;;25.30;1.00;;;;;;5013143;28;20898;-78
2021/06/05 09:34:52;;;;;;;4.40;2.20;;;25.40;1.00;;;;;;5009721;28;20982;-78
2021/06/05 09:37:45;;;;;;;6.67;2.60;;;25.50;1.00;;;;;;4993053;28;20418;-78
2021/06/05 09:41:04;;;;;;;3.33;2.20;;;25.70;1.00;;;;;;4992845;28;20398;-78
2021/06/05 09:43:31;;;;;;;2.77;1.90;;;25.70;1.00;;;;;;4958033;28;20885;-78
2021/06/05 09:46:22;;;;;;;5.47;3.77;;;25.50;1.00;;;;;;4973016;28;20978;-86
2021/06/05 09:49:18;;;;;;;3.13;2.30;;;25.50;1.00;;;;;;4973812;28;20433;-87
2021/06/05 09:52:21;;;;;;;3.27;2.73;;;25.50;1.00;;;;;;4972036;28;20416;-87
2021/06/05 09:55:14;;;;;;;5.13;2.43;;;25.40;1.00;;;;;;4973150;28;20905;-86
2021/06/05 09:57:48;;;;;;;2.80;2.60;;;25.30;1.00;;;;;;4973839;28;20403;-86
2021/06/05 10:01:08;;;;;;;6.93;2.63;;;25.40;1.00;;;;;;4973637;28;20632;-78
2021/06/05 10:03:45;;;;;;;4.27;2.40;;;25.40;1.00;;;;;;4975572;28;20875;-86
2021/06/05 10:06:56;;;;;;;8.77;2.47;;;25.50;1.00;;;;;;4992463;28;20535;-85
2021/06/05 10:10:14;;;;;;;2.27;1.93;;;25.60;1.00;;;;;;4976456;28;20416;-85
2021/06/05 10:12:45;;;;;;;2.43;1.97;;;25.80;1.00;;;;;;4973024;28;20938;-83
2021/06/05 10:15:31;;;;;;;4.20;2.23;;;25.60;1.00;;;;;;4973472;28;20454;-85
2021/06/05 10:18:44;;;;;;;1.87;1.77;;;25.50;1.00;;;;;;4985975;28;20535;-85
2021/06/05 10:21:56;;;;;;;4.20;2.60;;;25.40;1.00;;;;;;5034293;28;20379;-87
2021/06/05 10:24:57;;;;;;;9.50;2.60;;;25.70;1.00;;;;;;5032948;28;20426;-86
2021/06/05 10:27:32;;;;;;;10.90;3.43;;;;;;;;;;5033858;28;20466;-85
2021/06/05 10:30:35;;;;;;;3.17;2.37;;;26.30;1.00;;;;;;5039237;28;20439;-86
2021/06/05 10:33:37;;;;;;;2.60;2.13;;;26.40;1.00;;;;;;5012127;28;20862;-77
2021/06/05 10:36:18;;;;;;;4.97;2.20;;;26.50;1.00;;;;;;4913650;29;20850;-77
2021/06/05 10:39:09;;;;;;;10.30;2.60;;;26.70;1.00;;;;;;4908508;29;20814;-76
2021/06/05 10:41:54;;;;;;;3.70;2.43;;;26.80;1.00;;;;;;4907074;29;20490;-76
2021/06/05 10:44:44;;;;;;;4.00;2.23;;;26.80;1.00;;;;;;4915172;29;21010;-77
2021/06/05 10:47:48;;;;;;;4.80;2.03;;;26.70;1.00;;;;;;4916453;29;20982;-87
2021/06/05 10:50:27;;;;;;;3.77;2.47;;;26.70;1.00;;;;;;4914352;29;20998;-88
2021/06/05 10:53:44;;;;;;;2.43;2.23;;;26.50;1.00;;;;;;4897240;29;20915;-88
2021/06/05 10:56:44;;;;;;;3.47;2.47;;;26.60;1.00;;;;;;4901707;29;20435;-88
2021/06/05 10:59:39;;;;;;;5.40;2.47;;;26.90;1.00;;;;;;4896932;29;20427;-87
2021/06/05 11:02:35;;;;;;;4.33;2.10;;;27.00;1.00;;;;;;4931466;29;20411;-87
2021/06/05 11:05:36;;;;;;;2.60;2.23;;;27.20;1.00;;;;;;4899625;29;20924;-86
2021/06/05 11:08:17;;;;;;;3.80;2.47;;;27.20;1.00;;;;;;4879146;29;20479;-87
2021/06/05 11:11:32;;;;;;;2.37;2.20;;;27.10;1.00;;;;;;4886643;29;20426;-87
2021/06/05 11:14:20;;;;;;;3.20;2.40;;;27.20;1.00;;;;;;4934335;29;20407;-88
2021/06/05 11:16:57;;;;;;;3.23;2.30;;;27.20;1.00;;;;;;4938325;29;20434;-77
2021/06/05 11:19:50;;;;;;;6.47;2.70;;;27.30;1.00;;;;;;4933279;29;20466;-77
2021/06/05 11:22:22;;;;;;;2.90;2.70;;;27.10;1.00;;;;;;4918718;29;20840;-76
2021/06/05 11:25:06;;;;;;;6.00;2.57;;;27.00;1.00;;;;;;4927857;29;20535;-76
2021/06/05 11:28:28;;;;;;;4.03;2.53;;;26.90;1.00;;;;;;4937419;29;20478;-77
2021/06/05 11:31:31;;;;;;;10.63;3.53;;;27.20;1.00;;;;;;4897313;29;20911;-76
2021/06/05 11:34:38;;;;;;;3.53;2.97;;;27.30;1.00;;;;;;4888498;29;20529;-77
2021/06/05 11:37:11;;;;;;;4.53;2.93;;;27.50;1.00;;;;;;4899807;29;20420;-77
2021/06/05 11:39:37;;;;;;;2.80;2.60;;;;;;;;;;4899286;29;20425;-77
2021/06/05 11:42:26;;;;;;;2.77;2.57;;;27.80;1.00;;;;;;4884945;29;20430;-77
2021/06/05 11:45:25;;;;;;;2.97;2.73;;;27.70;1.00;;;;;;4975489;28;20451;-77
2021/06/05 11:48:33;;;;;;;2.60;2.40;;;27.90;1.00;;;;;;4975818;28;20482;-77
2021/06/05 11:51:41;;;;;;;4.40;2.03;;;28.20;1.00;;;;;;4975888;28;20530;-76
2021/06/05 11:54:09;;;;;;;2.50;2.30;;;28.40;1.00;;;;;;4918653;29;20495;-77
2021/06/05 11:56:59;;;;;;;5.23;2.80;;;28.50;1.00;;;;;;4918350;29;20410;-76
2021/06/05 11:59:51;;;;;;;4.30;2.83;;;28.40;1.00;;;;;;4917870;29;20440;-77
2021/06/05 12:02:24;;;;;;;3.20;2.87;;;28.10;1.00;;;;;;4960909;28;20416;-77
2021/06/05 12:05:00;;;;;;;3.00;2.53;;;27.90;1.00;;;;;;4974198;28;20411;-77
2021/06/05 12:07:35;;;;;;;2.60;2.40;;;28.10;1.00;;;;;;4969417;28;20487;-77
2021/06/05 12:10:34;;;;;;;12.63;2.80;;;28.10;1.00;;;;;;4948793;28;20779;-77
2021/06/05 12:13:21;;;;;;;2.97;2.70;;;;;;;;;;4958437;28;20431;-77
2021/06/05 12:19:09;;;;;;;3.40;2.90;;;28.30;1.00;;;;;;4975346;28;20433;-86
2021/06/05 12:29:14;;;;;;;2.50;2.33;;;28.10;1.00;;;;;;5055795;28;20471;-87
2021/06/05 12:31:42;;;;;;;5.33;2.27;;;28.30;1.00;;;;;;5055387;28;20414;-77
2021/06/05 12:34:34;;;;;;;3.40;2.33;;;28.20;1.00;;;;;;5055534;28;20396;-77
2021/06/05 12:37:27;;;;;;;13.77;5.53;;;28.10;1.00;;;;;;5055335;28;20757;-77
2021/06/05 12:40:53;;;;;;;5.80;2.20;;;28.00;1.00;;;;;;5055342;28;20845;-77
2021/06/05 12:43:41;;;;;;;16.67;2.97;;;27.80;1.00;;;;;;5013594;28;20421;-77
2021/06/05 12:46:30;;;;;;;3.90;2.70;;;27.70;1.00;;;;;;5013288;28;20440;-76
2021/06/05 12:49:15;;;;;;;2.10;2.00;;;27.70;1.00;;;;;;5013684;28;20408;-76
2021/06/05 12:51:50;;;;;;;3.37;2.40;;;27.70;1.00;;;;;;5003141;28;20839;-76
2021/06/05 12:54:45;;;;;;;2.40;2.13;;;27.80;1.00;;;;;;5003545;28;20439;-77
2021/06/05 12:57:33;;;;;;;7.60;2.93;;;28.10;1.00;;;;;;5008548;28;20435;-77
2021/06/05 12:59:59;;;;;;;2.70;2.23;;;28.20;1.00;;;;;;5008493;28;20428;-77
2021/06/05 13:02:33;;;;;;;2.97;2.77;;;28.40;1.00;;;;;;5010207;28;20510;-76
2021/06/05 13:05:22;;;;;;;4.60;2.30;;;28.20;1.00;;;;;;4995579;28;20205;-77
2021/06/05 13:07:50;;;;;;;2.70;2.10;;;27.90;1.00;;;;;;5001612;28;20470;-77
2021/06/05 13:10:54;;;;;;;5.23;2.70;;;27.80;1.00;;;;;;4992394;28;20900;-77
2021/06/05 13:13:24;;;;;;;12.50;2.60;;;27.70;1.00;;;;;;4977158;28;20477;-77
2021/06/05 13:16:19;;;;;;;3.90;2.63;;;27.50;1.00;;;;;;5006922;28;20420;-76
2021/06/05 13:19:13;;;;;;;5.97;2.77;;;27.40;1.00;;;;;;5045277;28;20789;-76
2021/06/05 13:22:20;;;;;;;2.70;2.50;;;27.40;1.00;;;;;;5054337;28;20455;-76
2021/06/05 13:25:11;;;;;;;2.30;2.13;;;27.40;1.00;;;;;;5050207;28;20415;-76
2021/06/05 13:28:03;;;;;;;2.57;2.37;;;27.40;1.00;;;;;;5031047;28;20463;-77
2021/06/05 13:31:03;;;;;;;3.90;2.47;;;27.40;1.00;;;;;;5034118;28;20753;-76
2021/06/05 13:34:08;;;;;;;3.10;2.80;;;27.20;1.00;;;;;;5035165;28;20983;-76
2021/06/05 13:36:46;;;;;;;7.80;3.17;;;26.90;1.00;;;;;;5034326;28;20393;-76
2021/06/05 13:39:18;;;;;;;9.73;2.80;;;26.70;1.00;;;;;;5049221;28;20420;-76
2021/06/05 13:42:26;;;;;;;3.53;2.60;;;26.40;1.00;;;;;;5036515;28;20422;-76
2021/06/05 13:45:44;;;;;;;4.10;3.07;;;26.20;1.00;;;;;;5034220;28;20390;-77
2021/06/05 13:48:11;;;;;;;4.97;2.43;;;25.90;1.00;;;;;;5034444;28;20459;-77
2021/06/05 13:51:20;;;;;;;9.73;2.70;;;25.80;1.00;;;;;;5034136;28;20732;-77
2021/06/05 13:53:47;;;;;;;3.40;3.10;;;;;;;;;;5034253;28;20457;-77
2021/06/05 13:56:50;;;;;;;4.33;2.60;;;25.20;1.00;;;;;;5033899;28;20437;-77
2021/06/05 13:59:44;;;;;;;3.53;2.57;;;25.00;1.00;;;;;;5033888;28;20437;-77
2021/06/05 14:02:15;;;;;;;5.17;3.20;;;24.70;1.00;;;;;;5053370;28;20416;-77
2021/06/05 14:05:20;;;;;;;3.93;3.00;;;24.50;1.00;;;;;;5048465;28;20421;-77
2021/06/05 14:11:27;;;;;;;3.40;3.10;;;24.30;1.00;;;;;;5050713;28;20416;-77
2021/06/05 14:13:55;;;;;;;4.93;3.00;;;24.10;1.00;;;;;;5054192;28;20407;-77
2021/06/05 14:16:23;;;;;;;3.40;3.10;;;24.00;1.00;;;;;;5037907;28;20433;-77
2021/06/05 14:19:32;;;;;;;4.93;2.60;;;23.90;1.00;;;;;;5034058;28;20403;-77
2021/06/05 14:22:44;;;;;;;3.30;2.63;;;23.60;1.00;;;;;;5033730;28;20407;-77
2021/06/05 14:25:32;;;;;;;4.63;3.30;;;23.50;1.00;;;;;;5039315;28;20429;-76
2021/06/05 14:28:05;;;;;;;19.90;4.10;;;22.70;1.00;;;;;;5053545;28;20802;-74
2021/06/05 14:30:35;;;;;;;10.80;3.50;;;21.90;1.00;;;;;;5033445;28;20426;-74
2021/06/05 14:33:05;;;;;;;3.00;1.80;;;21.00;1.00;;;;;;5034003;28;20396;-73
2021/06/05 14:35:31;;;;;;;4.00;1.50;;;20.40;1.00;;;;;;5033438;28;20418;-73
2021/06/05 14:37:57;;;;;;;12.97;1.93;;;;;;;;;;5033585;28;20780;-73
2021/06/05 14:40:24;;;;;;;14.30;2.67;;;19.70;1.00;;;;;;5037592;28;20414;-73
2021/06/05 14:42:50;;;;;;;3.33;1.83;;;;;;;;;;5038146;28;20430;-73